createdAt,value
2023-03-16T00:00:56.854Z,70.22
2023-03-16T00:03:24.679Z,69.84
2023-03-16T00:05:54.295Z,69.51
2023-03-16T00:08:24.355Z,70.06
2023-03-16T00:10:54.267Z,70.24
2023-03-16T00:13:24.737Z,70.19
2023-03-16T00:15:53.446Z,70.22
2023-03-16T00:18:22.540Z,69.88
2023-03-16T00:20:53.439Z,70.07
2023-03-16T00:23:27.602Z,69.63
2023-03-16T00:26:02.051Z,69.41
2023-03-16T00:28:34.607Z,69.55
2023-03-16T00:31:02.934Z,70.02
2023-03-16T00:33:35.325Z,70.06
2023-03-16T00:36:09.377Z,70.13
2023-03-16T00:38:39.504Z,70.41
2023-03-16T00:41:09.639Z,70.18
2023-03-16T00:43:41.699Z,70.32
2023-03-16T00:46:11.520Z,70.22
2023-03-16T00:48:42.557Z,70.29
2023-03-16T00:51:13.673Z,70.27
2023-03-16T00:53:43.247Z,70.61
2023-03-16T00:56:13.781Z,70.16
2023-03-16T00:58:43.049Z,70.38
2023-03-16T01:01:14.184Z,70.13
2023-03-16T01:03:42.472Z,70.11
2023-03-16T01:06:12.458Z,70.09
2023-03-16T01:08:41.851Z,70.37
2023-03-16T01:11:12.730Z,69.87
2023-03-16T01:13:41.393Z,70.15
2023-03-16T01:16:11.189Z,69.97
2023-03-16T01:18:41.466Z,69.90
2023-03-16T01:21:13.728Z,70.13
2023-03-16T01:23:42.839Z,70.10
2023-03-16T01:26:12.270Z,70.66
2023-03-16T01:28:40.267Z,70.71
2023-03-16T01:31:10.151Z,70.56
2023-03-16T01:33:40.340Z,70.61
2023-03-16T01:36:13.559Z,70.65
2023-03-16T01:38:51.124Z,70.63
2023-03-16T01:41:20.413Z,70.59
2023-03-16T01:43:48.157Z,70.48
2023-03-16T01:46:20.067Z,70.28
2023-03-16T01:49:12.299Z,70.45
2023-03-16T01:51:45.324Z,70.47
2023-03-16T01:54:21.841Z,70.20
2023-03-16T01:56:58.371Z,70.55
2023-03-16T01:59:32.326Z,70.46
2023-03-16T02:02:03.035Z,70.26
2023-03-16T02:04:43.591Z,70.65
2023-03-16T02:07:17.127Z,71.01
2023-03-16T02:09:49.568Z,71.26
2023-03-16T02:12:20.332Z,71.06
2023-03-16T02:14:53.193Z,70.62
2023-03-16T02:17:24.880Z,70.93
2023-03-16T02:20:08.811Z,70.51
2023-03-16T02:22:42.359Z,70.75
2023-03-16T02:25:11.222Z,70.17
2023-03-16T02:27:47.321Z,70.13
2023-03-16T02:30:18.498Z,70.18
2023-03-16T02:33:02.428Z,69.83
2023-03-16T02:35:30.245Z,70.35
2023-03-16T02:37:58.139Z,70.23
2023-03-16T02:40:32.917Z,70.55
2023-03-16T02:43:08.073Z,70.09
2023-03-16T02:45:46.186Z,69.87
2023-03-16T02:48:24.435Z,69.61
2023-03-16T02:50:54.559Z,69.82
2023-03-16T02:53:22.588Z,69.42
2023-03-16T02:55:50.825Z,69.27
2023-03-16T02:58:19.265Z,69.46
2023-03-16T03:00:49.249Z,69.25
2023-03-16T03:03:18.892Z,68.92
2023-03-16T03:05:46.737Z,69.07
2023-03-16T03:08:14.783Z,68.91
2023-03-16T03:10:42.692Z,69.16
2023-03-16T03:13:10.923Z,69.03
2023-03-16T03:15:39.124Z,69.25
2023-03-16T03:18:12.274Z,68.73
2023-03-16T03:20:40.914Z,69.05
2023-03-16T03:23:08.729Z,69.00
2023-03-16T03:25:36.431Z,68.60
2023-03-16T03:28:06.457Z,67.83
2023-03-16T03:30:34.282Z,67.83
2023-03-16T03:33:04.324Z,67.67
2023-03-16T03:35:33.472Z,67.92
2023-03-16T03:38:01.233Z,67.75
2023-03-16T03:40:29.477Z,67.79
2023-03-16T03:43:00.281Z,67.35
2023-03-16T03:45:28.940Z,67.41
2023-03-16T03:47:56.792Z,67.33
2023-03-16T03:50:25.538Z,67.13
2023-03-16T03:53:24.034Z,67.25
2023-03-16T03:56:20.918Z,67.05
2023-03-16T03:58:48.886Z,66.66
2023-03-16T04:01:24.259Z,67.37
2023-03-16T04:03:55.897Z,66.75
2023-03-16T04:06:23.858Z,67.24
2023-03-16T04:08:54.199Z,67.35
2023-03-16T04:11:26.018Z,67.13
2023-03-16T04:13:54.373Z,67.37
2023-03-16T04:16:22.490Z,67.67
2023-03-16T04:18:54.594Z,66.94
2023-03-16T04:21:24.365Z,67.16
2023-03-16T04:23:56.576Z,67.29
2023-03-16T04:26:37.322Z,67.00
2023-03-16T04:29:05.894Z,67.67
2023-03-16T04:31:35.509Z,67.67
2023-03-16T04:34:03.619Z,67.68
2023-03-16T04:36:33.432Z,67.73
2023-03-16T04:39:04.684Z,67.66
2023-03-16T04:41:32.863Z,67.27
2023-03-16T04:44:07.994Z,67.50
2023-03-16T04:46:36.967Z,67.36
2023-03-16T04:49:11.337Z,67.49
2023-03-16T04:51:42.462Z,67.47
2023-03-16T04:54:17.238Z,67.33
2023-03-16T04:56:45.328Z,67.18
2023-03-16T04:59:35.650Z,66.81
2023-03-16T05:02:20.009Z,67.20
2023-03-16T05:04:48.804Z,67.24
2023-03-16T05:07:17.266Z,66.88
2023-03-16T05:09:51.254Z,66.55
2023-03-16T05:12:19.682Z,66.92
2023-03-16T05:14:50.217Z,66.62
2023-03-16T05:17:26.059Z,66.85
2023-03-16T05:19:54.465Z,66.37
2023-03-16T05:22:22.661Z,66.24
2023-03-16T05:25:15.105Z,65.75
2023-03-16T05:27:46.280Z,66.01
2023-03-16T05:30:20.019Z,65.94
2023-03-16T05:32:48.123Z,65.76
2023-03-16T05:35:16.502Z,65.96
2023-03-16T05:37:44.852Z,65.13
2023-03-16T05:40:18.868Z,65.14
2023-03-16T05:42:57.324Z,64.44
2023-03-16T05:45:25.930Z,64.55
2023-03-16T05:48:06.264Z,64.80
2023-03-16T05:50:37.417Z,65.05
2023-03-16T05:53:05.266Z,65.00
2023-03-16T05:55:34.649Z,63.89
2023-03-16T05:58:05.677Z,64.28
2023-03-16T06:00:36.248Z,64.38
2023-03-16T06:03:16.898Z,64.44
2023-03-16T06:05:44.946Z,63.46
2023-03-16T06:08:16.235Z,63.50
2023-03-16T06:10:50.286Z,63.48
2023-03-16T06:13:21.438Z,63.56
2023-03-16T06:15:50.491Z,63.14
2023-03-16T06:18:18.330Z,62.92
2023-03-16T06:20:47.244Z,62.93
2023-03-16T06:23:16.240Z,62.70
2023-03-16T06:25:44.840Z,62.25
2023-03-16T06:28:13.974Z,62.50
2023-03-16T06:30:41.843Z,62.22
2023-03-16T06:33:12.817Z,62.64
2023-03-16T06:35:41.759Z,62.55
2023-03-16T06:38:18.494Z,62.18
2023-03-16T06:40:57.050Z,62.32
2023-03-16T06:43:26.489Z,61.77
2023-03-16T06:45:55.048Z,60.81
2023-03-16T06:48:24.313Z,61.05
2023-03-16T06:50:52.053Z,61.23
2023-03-16T06:53:23.800Z,60.39
2023-03-16T06:55:52.941Z,60.46
2023-03-16T06:58:21.195Z,60.15
2023-03-16T07:00:51.295Z,59.92
2023-03-16T07:03:19.842Z,59.36
2023-03-16T07:05:54.298Z,59.24
2023-03-16T07:08:22.183Z,58.75
2023-03-16T07:10:51.412Z,58.72
2023-03-16T07:13:19.502Z,58.40
2023-03-16T07:15:53.226Z,58.98
2023-03-16T07:18:22.605Z,58.42
2023-03-16T07:20:50.634Z,58.07
2023-03-16T07:23:18.378Z,57.39
2023-03-16T07:25:47.194Z,57.05
2023-03-16T07:28:17.567Z,57.36
2023-03-16T07:31:02.601Z,57.12
2023-03-16T07:33:35.136Z,57.42
2023-03-16T07:36:06.521Z,55.91
2023-03-16T07:38:40.181Z,56.95
2023-03-16T07:41:08.815Z,56.36
2023-03-16T07:43:36.878Z,56.00
2023-03-16T07:46:06.301Z,54.58
2023-03-16T07:48:35.822Z,55.30
2023-03-16T07:51:05.199Z,54.85
2023-03-16T07:53:33.382Z,55.19
2023-03-16T07:56:21.389Z,54.87
2023-03-16T07:58:52.873Z,54.97
2023-03-16T08:01:20.803Z,53.72
2023-03-16T08:03:51.091Z,53.96
2023-03-16T08:06:18.890Z,53.98
2023-03-16T08:08:47.162Z,53.62
2023-03-16T08:11:24.930Z,51.72
2023-03-16T08:13:58.471Z,50.60
2023-03-16T08:16:34.711Z,51.43
2023-03-16T08:19:05.499Z,51.63
2023-03-16T08:21:35.081Z,51.39
2023-03-16T08:24:06.408Z,51.43
2023-03-16T08:26:34.789Z,50.97
2023-03-16T08:29:04.359Z,50.23
2023-03-16T08:31:35.876Z,50.65
2023-03-16T08:34:11.499Z,50.01
2023-03-16T08:36:44.689Z,49.86
2023-03-16T08:39:14.998Z,50.67
2023-03-16T08:41:48.174Z,50.76
2023-03-16T08:44:39.976Z,48.68
2023-03-16T08:47:07.823Z,48.44
2023-03-16T08:49:38.145Z,49.30
2023-03-16T08:52:12.817Z,49.93
2023-03-16T08:54:47.165Z,49.20
2023-03-16T08:57:21.171Z,48.72
2023-03-16T08:59:48.895Z,47.83
2023-03-16T09:02:16.750Z,48.96
2023-03-16T09:04:47.108Z,48.31
2023-03-16T09:07:14.984Z,49.18
2023-03-16T09:09:42.694Z,49.26
2023-03-16T09:12:10.623Z,48.58
2023-03-16T09:14:38.537Z,46.94
2023-03-16T09:17:07.624Z,46.73
2023-03-16T09:19:53.805Z,48.59
2023-03-16T09:22:24.414Z,48.20
2023-03-16T09:24:52.306Z,48.11
2023-03-16T09:27:20.496Z,48.30
2023-03-16T09:29:49.408Z,47.27
2023-03-16T09:32:17.199Z,48.07
2023-03-16T09:34:45.628Z,47.64
2023-03-16T09:37:13.350Z,48.21
2023-03-16T09:39:42.392Z,48.13
2023-03-16T09:42:18.654Z,47.58
2023-03-16T09:44:57.502Z,47.75
2023-03-16T09:47:29.042Z,48.34
2023-03-16T09:49:59.386Z,47.51
2023-03-16T09:52:34.390Z,48.16
2023-03-16T09:55:10.150Z,47.91
2023-03-16T09:57:41.859Z,47.59
2023-03-16T10:00:17.300Z,46.51
2023-03-16T10:03:06.248Z,46.10
2023-03-16T10:05:34.929Z,46.25
2023-03-16T10:08:13.881Z,44.63
2023-03-16T10:10:59.759Z,44.00
2023-03-16T10:13:35.397Z,44.16
2023-03-16T10:16:08.050Z,46.04
2023-03-16T10:18:42.482Z,44.68
2023-03-16T10:21:14.413Z,44.26
2023-03-16T10:23:43.559Z,44.14
2023-03-16T10:26:15.507Z,42.61
2023-03-16T10:28:45.474Z,43.38
2023-03-16T10:31:14.053Z,43.23
2023-03-16T10:33:41.827Z,41.62
2023-03-16T10:36:17.047Z,41.65
2023-03-16T10:38:48.261Z,42.31
2023-03-16T10:41:28.898Z,41.24
2023-03-16T10:43:58.349Z,41.94
2023-03-16T10:46:28.226Z,40.86
2023-03-16T10:49:00.159Z,41.51
2023-03-16T10:51:30.948Z,41.79
2023-03-16T10:54:11.262Z,39.99
2023-03-16T10:56:40.385Z,40.50
2023-03-16T10:59:17.174Z,39.44
2023-03-16T11:01:50.029Z,39.89
2023-03-16T11:04:20.402Z,39.74
2023-03-16T11:06:53.432Z,40.06
2023-03-16T11:09:24.988Z,40.47
2023-03-16T11:11:54.662Z,38.32
2023-03-16T11:14:27.955Z,39.42
2023-03-16T11:17:03.108Z,39.88
2023-03-16T11:19:32.998Z,39.91
2023-03-16T11:22:04.978Z,40.37
2023-03-16T11:24:43.531Z,40.73
2023-03-16T11:27:23.070Z,40.33
2023-03-16T11:30:00.720Z,40.18
2023-03-16T11:32:34.466Z,39.79
2023-03-16T11:35:04.601Z,40.39
2023-03-16T11:37:49.651Z,40.46
2023-03-16T11:40:33.154Z,39.56
2023-03-16T11:43:13.121Z,39.55
2023-03-16T11:45:48.492Z,39.94
2023-03-16T11:48:30.390Z,38.20
2023-03-16T11:51:05.139Z,38.76
2023-03-16T11:53:50.993Z,38.03
2023-03-16T11:56:34.682Z,39.15
2023-03-16T11:59:22.528Z,37.44
2023-03-16T12:02:02.249Z,38.18
2023-03-16T12:04:45.081Z,40.02
2023-03-16T12:07:31.591Z,39.98
2023-03-16T12:10:25.993Z,38.83
2023-03-16T12:13:30.863Z,38.83
2023-03-16T12:16:05.668Z,39.17
2023-03-16T12:18:43.654Z,40.40
2023-03-16T12:21:15.525Z,38.64
2023-03-16T12:23:57.770Z,39.74
2023-03-16T12:26:29.776Z,39.34
2023-03-16T12:28:59.942Z,39.26
2023-03-16T12:31:40.972Z,37.45
2023-03-16T12:34:15.060Z,37.91
2023-03-16T12:37:03.352Z,38.06
2023-03-16T12:39:48.783Z,37.03
2023-03-16T12:42:55.234Z,36.75
2023-03-16T12:45:33.462Z,37.64
2023-03-16T12:48:13.302Z,37.98
2023-03-16T12:50:50.820Z,37.87
2023-03-16T12:53:43.358Z,37.05
2023-03-16T12:56:13.136Z,39.49
2023-03-16T12:58:47.050Z,39.27
2023-03-16T13:01:16.870Z,39.27
2023-03-16T13:03:48.623Z,38.85
2023-03-16T13:06:23.771Z,38.29
2023-03-16T13:08:57.744Z,38.13
2023-03-16T13:11:25.557Z,38.63
2023-03-16T13:14:07.310Z,38.56
2023-03-16T13:16:37.468Z,39.27
2023-03-16T13:19:26.297Z,37.76
2023-03-16T13:22:06.890Z,37.40
2023-03-16T13:24:40.809Z,37.61
2023-03-16T13:27:22.324Z,36.59
2023-03-16T13:29:58.561Z,37.23
2023-03-16T13:32:30.934Z,38.33
2023-03-16T13:35:02.291Z,37.46
2023-03-16T13:37:31.101Z,37.48
2023-03-16T13:40:04.186Z,37.76
2023-03-16T13:42:33.190Z,37.81
2023-03-16T13:45:14.178Z,36.88
2023-03-16T13:47:44.087Z,37.35
2023-03-16T13:50:14.963Z,37.80
2023-03-16T13:52:44.582Z,37.00
2023-03-16T13:55:18.088Z,37.60
2023-03-16T13:57:47.442Z,37.19
2023-03-16T14:00:20.130Z,37.07
2023-03-16T14:02:51.987Z,37.83
2023-03-16T14:05:24.403Z,39.00
2023-03-16T14:07:53.178Z,39.35
2023-03-16T14:10:22.063Z,38.96
2023-03-16T14:12:54.127Z,37.91
2023-03-16T14:15:23.819Z,38.76
2023-03-16T14:17:51.887Z,37.47
2023-03-16T14:20:23.237Z,38.52
2023-03-16T14:22:53.298Z,39.14
2023-03-16T14:25:24.150Z,39.43
2023-03-16T14:27:59.808Z,39.21
2023-03-16T14:30:30.260Z,39.49
2023-03-16T14:33:00.460Z,39.12
2023-03-16T14:35:32.279Z,39.05
2023-03-16T14:38:29.559Z,37.73
2023-03-16T14:40:58.986Z,39.01
2023-03-16T14:43:32.660Z,39.57
2023-03-16T14:46:01.569Z,39.67
2023-03-16T14:48:30.282Z,39.59
2023-03-16T14:51:02.043Z,39.33
2023-03-16T14:53:30.052Z,38.82
2023-03-16T14:55:58.414Z,39.03
2023-03-16T14:58:26.590Z,39.48
2023-03-16T15:00:55.353Z,39.82
2023-03-16T15:03:28.355Z,39.55
2023-03-16T15:05:56.128Z,39.88
2023-03-16T15:08:28.517Z,38.45
2023-03-16T15:11:00.764Z,37.99
2023-03-16T15:13:53.051Z,38.45
2023-03-16T15:16:22.967Z,38.92
2023-03-16T15:18:51.820Z,38.49
2023-03-16T15:21:23.308Z,37.55
2023-03-16T15:23:52.569Z,38.87
2023-03-16T15:26:27.219Z,38.83
2023-03-16T15:28:56.424Z,37.78
2023-03-16T15:31:24.964Z,38.21
2023-03-16T15:33:52.854Z,39.42
2023-03-16T15:36:24.171Z,39.32
2023-03-16T15:38:55.672Z,40.21
2023-03-16T15:41:24.872Z,41.09
2023-03-16T15:43:52.886Z,41.42
2023-03-16T15:46:20.835Z,41.15
2023-03-16T15:48:48.556Z,41.42
2023-03-16T15:51:22.648Z,41.30
2023-03-16T15:53:54.282Z,41.78
2023-03-16T15:56:29.860Z,40.89
2023-03-16T15:59:00.902Z,41.15
2023-03-16T16:01:31.929Z,41.97
2023-03-16T16:03:59.838Z,42.73
2023-03-16T16:06:28.576Z,42.92
2023-03-16T16:08:57.667Z,43.12
2023-03-16T16:11:28.591Z,43.09
2023-03-16T16:13:57.506Z,43.24
2023-03-16T16:16:28.702Z,43.70
2023-03-16T16:18:57.247Z,43.86
2023-03-16T16:21:27.985Z,43.83
2023-03-16T16:23:57.263Z,44.35
2023-03-16T16:26:47.038Z,44.35
2023-03-16T16:29:18.423Z,44.53
2023-03-16T16:31:46.551Z,44.99
2023-03-16T16:34:17.827Z,45.28
2023-03-16T16:36:45.971Z,45.13
2023-03-16T16:39:15.543Z,45.11
2023-03-16T16:41:44.220Z,45.87
2023-03-16T16:44:17.188Z,46.27
2023-03-16T16:46:45.024Z,46.23
2023-03-16T16:49:16.598Z,46.71
2023-03-16T16:51:44.552Z,46.81
2023-03-16T16:54:18.899Z,47.01
2023-03-16T16:56:47.628Z,47.23
2023-03-16T16:59:18.601Z,47.28
2023-03-16T17:01:47.471Z,47.58
2023-03-16T17:04:17.454Z,47.86
2023-03-16T17:06:46.651Z,48.26
2023-03-16T17:09:16.141Z,48.29
2023-03-16T17:11:45.606Z,48.31
2023-03-16T17:14:17.895Z,48.46
2023-03-16T17:16:47.140Z,49.41
2023-03-16T17:19:21.307Z,49.49
2023-03-16T17:21:49.093Z,49.58
2023-03-16T17:24:18.870Z,49.94
2023-03-16T17:26:49.514Z,49.95
2023-03-16T17:29:22.528Z,50.27
2023-03-16T17:31:51.388Z,50.95
2023-03-16T17:34:21.770Z,51.18
2023-03-16T17:36:49.762Z,51.84
2023-03-16T17:39:21.904Z,52.60
2023-03-16T17:41:52.274Z,52.71
2023-03-16T17:44:21.350Z,52.92
2023-03-16T17:46:49.663Z,52.82
2023-03-16T17:49:19.983Z,53.62
2023-03-16T17:51:47.800Z,53.36
2023-03-16T17:54:15.635Z,53.67
2023-03-16T17:56:45.940Z,54.23
2023-03-16T17:59:18.332Z,54.42
2023-03-16T18:01:47.533Z,54.75
2023-03-16T18:04:17.876Z,54.84
2023-03-16T18:06:47.390Z,55.37
2023-03-16T18:09:15.809Z,55.22
2023-03-16T18:11:47.711Z,55.74
2023-03-16T18:14:25.421Z,55.85
2023-03-16T18:16:54.654Z,55.55
2023-03-16T18:19:25.686Z,56.06
2023-03-16T18:21:54.041Z,55.88
2023-03-16T18:24:25.517Z,56.53
2023-03-16T18:26:55.207Z,56.82
2023-03-16T18:29:23.978Z,57.56
2023-03-16T18:31:55.327Z,57.88
2023-03-16T18:34:25.308Z,58.04
2023-03-16T18:36:54.853Z,59.52
2023-03-16T18:39:23.287Z,58.91
2023-03-16T18:41:51.145Z,58.83
2023-03-16T18:44:22.413Z,59.19
2023-03-16T18:46:51.901Z,60.10
2023-03-16T18:49:23.269Z,59.87
2023-03-16T18:51:53.262Z,59.44
2023-03-16T18:54:23.503Z,59.70
2023-03-16T18:56:51.873Z,59.48
2023-03-16T18:59:21.528Z,60.17
2023-03-16T19:01:49.516Z,59.76
2023-03-16T19:04:21.437Z,59.73
2023-03-16T19:06:50.121Z,60.02
2023-03-16T19:09:21.330Z,59.91
2023-03-16T19:11:50.481Z,60.31
2023-03-16T19:14:20.495Z,60.06
2023-03-16T19:16:49.942Z,60.50
2023-03-16T19:19:21.211Z,60.22
2023-03-16T19:21:50.366Z,60.46
2023-03-16T19:24:23.301Z,60.19
2023-03-16T19:26:51.915Z,60.29
2023-03-16T19:29:21.110Z,60.15
2023-03-16T19:31:50.968Z,60.26
2023-03-16T19:34:19.418Z,60.50
2023-03-16T19:36:47.312Z,60.20
2023-03-16T19:39:16.917Z,60.90
2023-03-16T19:41:46.476Z,60.80
2023-03-16T19:44:17.847Z,60.59
2023-03-16T19:46:46.573Z,60.50
2023-03-16T19:49:19.664Z,61.40
2023-03-16T19:51:47.529Z,61.24
2023-03-16T19:54:22.128Z,61.38
2023-03-16T19:56:50.095Z,61.22
2023-03-16T19:59:18.807Z,61.27
2023-03-16T20:01:47.088Z,61.85
2023-03-16T20:04:18.441Z,62.41
2023-03-16T20:06:48.729Z,62.24
2023-03-16T20:09:17.538Z,62.17
2023-03-16T20:11:46.620Z,62.09
2023-03-16T20:14:21.356Z,63.08
2023-03-16T20:16:49.193Z,63.08
2023-03-16T20:19:20.238Z,63.74
2023-03-16T20:21:49.808Z,63.35
2023-03-16T20:24:20.830Z,63.85
2023-03-16T20:26:51.290Z,64.02
2023-03-16T20:29:24.984Z,64.14
2023-03-16T20:31:52.802Z,63.76
2023-03-16T20:34:24.054Z,64.46
2023-03-16T20:36:51.802Z,64.49
2023-03-16T20:39:19.552Z,65.97
2023-03-16T20:41:47.413Z,67.80
2023-03-16T20:44:18.113Z,66.84
2023-03-16T20:46:46.984Z,65.92
2023-03-16T20:49:32.325Z,65.26
2023-03-16T20:52:00.106Z,64.75
2023-03-16T20:54:28.395Z,64.16
2023-03-16T20:56:56.192Z,63.61
2023-03-16T20:59:26.421Z,63.80
2023-03-16T21:01:55.941Z,63.90
2023-03-16T21:04:27.871Z,63.64
2023-03-16T21:06:56.818Z,63.29
2023-03-16T21:09:24.824Z,63.44
2023-03-16T21:11:52.959Z,63.13
2023-03-16T21:14:24.269Z,63.13
2023-03-16T21:16:54.149Z,63.44
2023-03-16T21:19:23.935Z,63.30
2023-03-16T21:21:53.237Z,62.98
2023-03-16T21:24:21.056Z,62.90
2023-03-16T21:26:49.071Z,62.78
2023-03-16T21:29:21.124Z,63.05
2023-03-16T21:31:49.422Z,62.61
2023-03-16T21:34:24.135Z,62.79
2023-03-16T21:36:53.324Z,62.71
2023-03-16T21:39:25.233Z,62.43
2023-03-16T21:41:53.657Z,62.78
2023-03-16T21:44:21.738Z,63.02
2023-03-16T21:46:49.624Z,62.97
2023-03-16T21:49:18.032Z,63.13
2023-03-16T21:51:45.880Z,62.93
2023-03-16T21:54:16.255Z,63.50
2023-03-16T21:56:44.471Z,63.83
2023-03-16T21:59:13.017Z,63.75
2023-03-16T22:01:58.342Z,63.37
2023-03-16T22:04:28.379Z,63.26
2023-03-16T22:06:56.206Z,63.31
2023-03-16T22:09:29.856Z,63.32
2023-03-16T22:11:57.759Z,63.10
2023-03-16T22:14:25.574Z,63.17
2023-03-16T22:16:53.343Z,62.77
2023-03-16T22:19:21.357Z,62.85
2023-03-16T22:21:49.903Z,62.67
2023-03-16T22:24:20.361Z,62.58
2023-03-16T22:26:50.813Z,62.55
2023-03-16T22:29:23.240Z,62.73
2023-03-16T22:31:53.687Z,62.42
2023-03-16T22:34:28.315Z,62.54
2023-03-16T22:36:56.706Z,62.43
2023-03-16T22:39:25.007Z,62.48
2023-03-16T22:41:54.145Z,62.54
2023-03-16T22:44:23.491Z,62.72
2023-03-16T22:46:51.436Z,62.79
2023-03-16T22:49:22.106Z,62.92
2023-03-16T22:51:52.428Z,63.06
2023-03-16T22:54:23.367Z,63.27
2023-03-16T22:56:51.499Z,63.08
2023-03-16T22:59:25.563Z,63.63
2023-03-16T23:01:53.387Z,63.40
2023-03-16T23:04:24.436Z,63.75
2023-03-16T23:06:54.288Z,63.51
2023-03-16T23:09:22.667Z,64.01
2023-03-16T23:11:53.963Z,63.71
2023-03-16T23:14:25.095Z,63.41
2023-03-16T23:16:53.595Z,64.08
2023-03-16T23:19:25.584Z,63.87
2023-03-16T23:21:55.769Z,63.89
2023-03-16T23:24:23.979Z,63.45
2023-03-16T23:26:52.753Z,63.72
2023-03-16T23:29:21.610Z,63.31
2023-03-16T23:31:51.376Z,63.67
2023-03-16T23:34:22.587Z,63.53
2023-03-16T23:36:50.812Z,63.86
2023-03-16T23:39:19.084Z,63.20
2023-03-16T23:41:48.789Z,63.11
2023-03-16T23:44:18.645Z,63.38
2023-03-16T23:46:46.938Z,63.58
2023-03-16T23:49:21.500Z,63.64
2023-03-16T23:51:49.622Z,63.76
2023-03-16T23:54:20.634Z,63.88
2023-03-16T23:56:48.548Z,64.08
2023-03-16T23:59:16.838Z,64.24
